Sycamore, Ohio
Current Conditions -  °F | °C
As of 5:53 PM on Wednesday 26 Nov 2014 (Local Time) from KMNN Reporting Station
Overcast Overcast  
Wind Chill: 29°   Ceiling: 3000
Heat Index: 33°   Visibility: 8mi
Dew Point: 27°   Wind: 5mph
Humidity: 78%   Direction: 10°N
Pressure: 30.05"   Gusts: NA
Location:  40.95°N, 83.17°W
Report Text: KMNN 262253Z AUTO 01004KT 8SM OVC030 01/M03 A3005 RMK AO2 SLP187 T00061028 TSNO
Loading
Personal Weather Stations






























Interactive Weather Map New forecast layout! Learn more

10-Day Weather Forecast

Advertisements
Track Severe Weather on mobile